sensor_id;sensor_type;location;lat;lon;timestamp;temperature;humidity
68433;DHT22;55412;51.350;17.056;2022-12-26T00:02:16;7.30;90.40
68433;DHT22;55412;51.350;17.056;2022-12-26T00:04:42;7.20;90.40
68433;DHT22;55412;51.350;17.056;2022-12-26T00:07:07;7.30;90.50
68433;DHT22;55412;51.350;17.056;2022-12-26T00:09:33;7.30;90.40
68433;DHT22;55412;51.350;17.056;2022-12-26T00:12:00;7.30;90.40
68433;DHT22;55412;51.350;17.056;2022-12-26T00:14:26;7.30;90.30
68433;DHT22;55412;51.350;17.056;2022-12-26T00:16:52;7.30;90.50
68433;DHT22;55412;51.350;17.056;2022-12-26T00:19:18;7.30;90.70
68433;DHT22;55412;51.350;17.056;2022-12-26T00:21:44;7.30;90.60
68433;DHT22;55412;51.350;17.056;2022-12-26T00:24:10;7.30;90.50
68433;DHT22;55412;51.350;17.056;2022-12-26T00:26:36;7.40;90.50
68433;DHT22;55412;51.350;17.056;2022-12-26T00:29:03;7.40;90.40
68433;DHT22;55412;51.350;17.056;2022-12-26T00:31:31;7.40;90.60
68433;DHT22;55412;51.350;17.056;2022-12-26T00:33:59;7.40;90.40
68433;DHT22;55412;51.350;17.056;2022-12-26T00:36:29;7.40;90.40
68433;DHT22;55412;51.350;17.056;2022-12-26T00:38:58;7.40;90.40
68433;DHT22;55412;51.350;17.056;2022-12-26T00:41:25;7.40;90.30
68433;DHT22;55412;51.350;17.056;2022-12-26T00:43:51;7.40;90.20
68433;DHT22;55412;51.350;17.056;2022-12-26T00:46:18;7.40;90.10
68433;DHT22;55412;51.350;17.056;2022-12-26T00:48:44;7.50;90.00
68433;DHT22;55412;51.350;17.056;2022-12-26T00:51:10;7.50;89.70
68433;DHT22;55412;51.350;17.056;2022-12-26T00:53:37;7.50;89.80
68433;DHT22;55412;51.350;17.056;2022-12-26T00:56:03;7.50;89.70
68433;DHT22;55412;51.350;17.056;2022-12-26T00:58:29;7.50;89.40
68433;DHT22;55412;51.350;17.056;2022-12-26T01:03:41;7.60;89.10
68433;DHT22;55412;51.350;17.056;2022-12-26T01:06:07;7.60;88.90
68433;DHT22;55412;51.350;17.056;2022-12-26T01:08:33;7.70;88.80
68433;DHT22;55412;51.350;17.056;2022-12-26T01:11:05;7.70;88.80
68433;DHT22;55412;51.350;17.056;2022-12-26T01:13:33;7.70;88.60
68433;DHT22;55412;51.350;17.056;2022-12-26T01:16:01;7.70;88.50
68433;DHT22;55412;51.350;17.056;2022-12-26T01:18:27;7.70;88.50
68433;DHT22;55412;51.350;17.056;2022-12-26T01:21:05;7.70;88.50
68433;DHT22;55412;51.350;17.056;2022-12-26T01:23:36;7.70;88.40
68433;DHT22;55412;51.350;17.056;2022-12-26T01:26:04;7.70;88.30
68433;DHT22;55412;51.350;17.056;2022-12-26T01:28:30;7.70;88.20
68433;DHT22;55412;51.350;17.056;2022-12-26T01:31:03;7.70;88.30
68433;DHT22;55412;51.350;17.056;2022-12-26T01:33:30;7.70;88.10
68433;DHT22;55412;51.350;17.056;2022-12-26T01:35:57;7.70;87.90
68433;DHT22;55412;51.350;17.056;2022-12-26T01:38:23;7.80;87.60
68433;DHT22;55412;51.350;17.056;2022-12-26T01:40:49;7.80;87.50
68433;DHT22;55412;51.350;17.056;2022-12-26T01:44:50;7.80;87.10
68433;DHT22;55412;51.350;17.056;2022-12-26T01:47:09;7.70;87.00
68433;DHT22;55412;51.350;17.056;2022-12-26T01:49:39;7.70;87.00
68433;DHT22;55412;51.350;17.056;2022-12-26T01:52:13;7.70;86.90
68433;DHT22;55412;51.350;17.056;2022-12-26T01:54:47;7.70;86.80
68433;DHT22;55412;51.350;17.056;2022-12-26T01:57:23;7.70;87.00
68433;DHT22;55412;51.350;17.056;2022-12-26T01:59:55;7.70;86.90
68433;DHT22;55412;51.350;17.056;2022-12-26T02:02:24;7.70;87.10
68433;DHT22;55412;51.350;17.056;2022-12-26T02:04:52;7.60;87.20
68433;DHT22;55412;51.350;17.056;2022-12-26T02:07:41;7.60;87.30
68433;DHT22;55412;51.350;17.056;2022-12-26T02:10:16;7.60;87.40
68433;DHT22;55412;51.350;17.056;2022-12-26T02:12:47;7.70;87.50
68433;DHT22;55412;51.350;17.056;2022-12-26T02:15:15;7.60;87.60
68433;DHT22;55412;51.350;17.056;2022-12-26T02:17:42;7.60;87.80
68433;DHT22;55412;51.350;17.056;2022-12-26T02:20:16;7.60;87.70
68433;DHT22;55412;51.350;17.056;2022-12-26T02:40:06;7.70;87.50
68433;DHT22;55412;51.350;17.056;2022-12-26T02:45:39;7.70;87.80
68433;DHT22;55412;51.350;17.056;2022-12-26T02:48:53;7.80;87.50
68433;DHT22;55412;51.350;17.056;2022-12-26T02:55:08;7.80;87.30
68433;DHT22;55412;51.350;17.056;2022-12-26T02:58:17;7.70;87.20
68433;DHT22;55412;51.350;17.056;2022-12-26T03:01:06;7.70;87.30
68433;DHT22;55412;51.350;17.056;2022-12-26T03:04:00;7.70;87.40
68433;DHT22;55412;51.350;17.056;2022-12-26T03:06:55;7.70;87.50
68433;DHT22;55412;51.350;17.056;2022-12-26T03:09:42;7.70;87.90
68433;DHT22;55412;51.350;17.056;2022-12-26T03:12:44;7.70;88.10
68433;DHT22;55412;51.350;17.056;2022-12-26T03:15:44;7.80;88.20
68433;DHT22;55412;51.350;17.056;2022-12-26T03:18:34;7.80;88.20
68433;DHT22;55412;51.350;17.056;2022-12-26T03:21:04;7.90;87.90
68433;DHT22;55412;51.350;17.056;2022-12-26T03:23:32;7.80;87.60
68433;DHT22;55412;51.350;17.056;2022-12-26T03:26:06;7.80;87.50
68433;DHT22;55412;51.350;17.056;2022-12-26T03:28:53;7.90;87.60
68433;DHT22;55412;51.350;17.056;2022-12-26T03:31:39;7.90;87.80
68433;DHT22;55412;51.350;17.056;2022-12-26T03:34:06;7.90;87.80
68433;DHT22;55412;51.350;17.056;2022-12-26T03:37:02;8.00;87.50
68433;DHT22;55412;51.350;17.056;2022-12-26T03:46:16;8.10;87.00
68433;DHT22;55412;51.350;17.056;2022-12-26T03:49:42;8.10;86.90
68433;DHT22;55412;51.350;17.056;2022-12-26T03:55:45;8.30;86.50
68433;DHT22;55412;51.350;17.056;2022-12-26T03:58:50;8.30;86.40
68433;DHT22;55412;51.350;17.056;2022-12-26T04:01:38;8.40;86.20
68433;DHT22;55412;51.350;17.056;2022-12-26T04:04:24;8.50;85.90
68433;DHT22;55412;51.350;17.056;2022-12-26T04:07:24;8.50;85.70
68433;DHT22;55412;51.350;17.056;2022-12-26T04:10:16;8.60;85.30
68433;DHT22;55412;51.350;17.056;2022-12-26T04:13:07;8.60;85.30
68433;DHT22;55412;51.350;17.056;2022-12-26T04:16:11;8.60;85.10
68433;DHT22;55412;51.350;17.056;2022-12-26T04:19:16;8.60;84.80
68433;DHT22;55412;51.350;17.056;2022-12-26T04:22:13;8.60;85.00
68433;DHT22;55412;51.350;17.056;2022-12-26T04:25:18;8.60;84.90
68433;DHT22;55412;51.350;17.056;2022-12-26T04:28:06;8.60;85.00
68433;DHT22;55412;51.350;17.056;2022-12-26T04:31:09;8.50;85.00
68433;DHT22;55412;51.350;17.056;2022-12-26T04:34:00;8.60;85.30
68433;DHT22;55412;51.350;17.056;2022-12-26T04:36:56;8.60;85.20
68433;DHT22;55412;51.350;17.056;2022-12-26T04:39:47;8.60;85.30
68433;DHT22;55412;51.350;17.056;2022-12-26T04:42:34;8.60;85.30
68433;DHT22;55412;51.350;17.056;2022-12-26T04:45:20;8.70;85.30
68433;DHT22;55412;51.350;17.056;2022-12-26T04:47:49;8.70;85.50
68433;DHT22;55412;51.350;17.056;2022-12-26T04:50:34;8.70;85.50
68433;DHT22;55412;51.350;17.056;2022-12-26T04:53:00;8.70;85.50
68433;DHT22;55412;51.350;17.056;2022-12-26T04:55:28;8.70;85.40
68433;DHT22;55412;51.350;17.056;2022-12-26T04:57:56;8.80;85.50
68433;DHT22;55412;51.350;17.056;2022-12-26T05:00:23;8.80;85.40
68433;DHT22;55412;51.350;17.056;2022-12-26T05:02:51;8.80;85.40
68433;DHT22;55412;51.350;17.056;2022-12-26T05:05:39;8.80;85.40
68433;DHT22;55412;51.350;17.056;2022-12-26T05:08:45;8.80;85.30
68433;DHT22;55412;51.350;17.056;2022-12-26T05:11:33;8.90;85.00
68433;DHT22;55412;51.350;17.056;2022-12-26T05:13:59;8.90;84.90
68433;DHT22;55412;51.350;17.056;2022-12-26T05:16:26;8.90;84.90
68433;DHT22;55412;51.350;17.056;2022-12-26T05:19:13;8.90;84.90
68433;DHT22;55412;51.350;17.056;2022-12-26T05:22:00;8.90;84.80
68433;DHT22;55412;51.350;17.056;2022-12-26T05:24:46;8.90;84.80
68433;DHT22;55412;51.350;17.056;2022-12-26T05:27:42;8.90;84.80
68433;DHT22;55412;51.350;17.056;2022-12-26T05:30:27;8.90;84.80
68433;DHT22;55412;51.350;17.056;2022-12-26T05:32:53;8.90;84.70
68433;DHT22;55412;51.350;17.056;2022-12-26T05:35:38;9.00;84.70
68433;DHT22;55412;51.350;17.056;2022-12-26T05:38:05;8.90;84.50
68433;DHT22;55412;51.350;17.056;2022-12-26T05:40:31;9.00;84.60
68433;DHT22;55412;51.350;17.056;2022-12-26T05:42:57;9.00;84.60
68433;DHT22;55412;51.350;17.056;2022-12-26T05:45:23;9.00;84.40
68433;DHT22;55412;51.350;17.056;2022-12-26T05:47:49;9.00;84.40
68433;DHT22;55412;51.350;17.056;2022-12-26T05:50:15;9.00;84.40
68433;DHT22;55412;51.350;17.056;2022-12-26T05:52:41;9.10;84.30
68433;DHT22;55412;51.350;17.056;2022-12-26T05:55:07;9.10;84.20
68433;DHT22;55412;51.350;17.056;2022-12-26T05:57:33;9.10;84.30
68433;DHT22;55412;51.350;17.056;2022-12-26T05:59:59;9.10;84.10
68433;DHT22;55412;51.350;17.056;2022-12-26T06:02:25;9.10;84.10
68433;DHT22;55412;51.350;17.056;2022-12-26T06:04:54;9.10;84.00
68433;DHT22;55412;51.350;17.056;2022-12-26T06:07:20;9.10;83.80
68433;DHT22;55412;51.350;17.056;2022-12-26T06:09:45;9.10;83.80
68433;DHT22;55412;51.350;17.056;2022-12-26T06:12:11;9.10;83.80
68433;DHT22;55412;51.350;17.056;2022-12-26T06:14:38;9.10;83.70
68433;DHT22;55412;51.350;17.056;2022-12-26T06:17:03;9.10;83.80
68433;DHT22;55412;51.350;17.056;2022-12-26T06:19:29;9.10;83.80
68433;DHT22;55412;51.350;17.056;2022-12-26T06:21:55;9.10;83.90
68433;DHT22;55412;51.350;17.056;2022-12-26T06:24:21;9.20;83.80
68433;DHT22;55412;51.350;17.056;2022-12-26T06:26:47;9.20;83.80
68433;DHT22;55412;51.350;17.056;2022-12-26T06:29:14;9.20;83.80
68433;DHT22;55412;51.350;17.056;2022-12-26T06:31:40;9.20;83.70
68433;DHT22;55412;51.350;17.056;2022-12-26T06:34:06;9.20;83.50
68433;DHT22;55412;51.350;17.056;2022-12-26T06:36:32;9.20;83.50
68433;DHT22;55412;51.350;17.056;2022-12-26T06:38:58;9.20;83.50
68433;DHT22;55412;51.350;17.056;2022-12-26T06:41:26;9.20;83.30
68433;DHT22;55412;51.350;17.056;2022-12-26T06:43:52;9.20;83.30
68433;DHT22;55412;51.350;17.056;2022-12-26T06:46:21;9.20;83.10
68433;DHT22;55412;51.350;17.056;2022-12-26T06:48:48;9.20;83.30
68433;DHT22;55412;51.350;17.056;2022-12-26T06:51:20;9.10;83.60
68433;DHT22;55412;51.350;17.056;2022-12-26T06:53:49;9.20;83.70
68433;DHT22;55412;51.350;17.056;2022-12-26T06:56:19;9.20;83.70
68433;DHT22;55412;51.350;17.056;2022-12-26T06:58:51;9.20;83.50
68433;DHT22;55412;51.350;17.056;2022-12-26T07:01:18;9.20;83.50
68433;DHT22;55412;51.350;17.056;2022-12-26T07:03:45;9.20;83.30
68433;DHT22;55412;51.350;17.056;2022-12-26T07:08:52;9.30;83.40
68433;DHT22;55412;51.350;17.056;2022-12-26T07:11:22;9.30;83.30
68433;DHT22;55412;51.350;17.056;2022-12-26T07:13:50;9.30;83.20
68433;DHT22;55412;51.350;17.056;2022-12-26T07:16:17;9.30;83.10
68433;DHT22;55412;51.350;17.056;2022-12-26T07:18:43;9.30;83.20
68433;DHT22;55412;51.350;17.056;2022-12-26T07:21:12;9.30;83.20
68433;DHT22;55412;51.350;17.056;2022-12-26T07:23:41;9.30;83.00
68433;DHT22;55412;51.350;17.056;2022-12-26T07:26:07;9.30;83.10
68433;DHT22;55412;51.350;17.056;2022-12-26T07:28:35;9.30;83.30
68433;DHT22;55412;51.350;17.056;2022-12-26T07:31:01;9.30;83.20
68433;DHT22;55412;51.350;17.056;2022-12-26T07:33:28;9.20;83.10
68433;DHT22;55412;51.350;17.056;2022-12-26T07:36:02;9.20;83.40
68433;DHT22;55412;51.350;17.056;2022-12-26T07:38:31;9.30;83.30
68433;DHT22;55412;51.350;17.056;2022-12-26T07:40:58;9.30;83.40
68433;DHT22;55412;51.350;17.056;2022-12-26T07:43:44;9.30;83.30
68433;DHT22;55412;51.350;17.056;2022-12-26T07:46:10;9.30;83.10
68433;DHT22;55412;51.350;17.056;2022-12-26T07:48:36;9.40;83.10
68433;DHT22;55412;51.350;17.056;2022-12-26T07:51:02;9.40;83.20
68433;DHT22;55412;51.350;17.056;2022-12-26T07:53:28;9.40;83.10
68433;DHT22;55412;51.350;17.056;2022-12-26T07:55:58;9.40;82.90
68433;DHT22;55412;51.350;17.056;2022-12-26T07:58:24;9.40;82.90
68433;DHT22;55412;51.350;17.056;2022-12-26T08:00:50;9.50;82.70
68433;DHT22;55412;51.350;17.056;2022-12-26T08:03:16;9.50;82.60
68433;DHT22;55412;51.350;17.056;2022-12-26T08:05:49;9.50;82.70
68433;DHT22;55412;51.350;17.056;2022-12-26T08:08:16;9.50;82.60
68433;DHT22;55412;51.350;17.056;2022-12-26T08:10:42;9.50;82.30
68433;DHT22;55412;51.350;17.056;2022-12-26T08:13:08;9.50;82.20
68433;DHT22;55412;51.350;17.056;2022-12-26T08:15:37;9.50;82.10
68433;DHT22;55412;51.350;17.056;2022-12-26T08:18:05;9.50;82.20
68433;DHT22;55412;51.350;17.056;2022-12-26T08:20:32;9.50;82.30
68433;DHT22;55412;51.350;17.056;2022-12-26T08:22:58;9.60;82.20
68433;DHT22;55412;51.350;17.056;2022-12-26T08:25:24;9.60;82.30
68433;DHT22;55412;51.350;17.056;2022-12-26T08:27:50;9.60;82.30
68433;DHT22;55412;51.350;17.056;2022-12-26T08:30:17;9.60;82.20
68433;DHT22;55412;51.350;17.056;2022-12-26T08:32:44;9.60;81.90
68433;DHT22;55412;51.350;17.056;2022-12-26T08:35:10;9.70;81.60
68433;DHT22;55412;51.350;17.056;2022-12-26T08:37:36;9.70;81.60
68433;DHT22;55412;51.350;17.056;2022-12-26T08:40:02;9.70;81.60
68433;DHT22;55412;51.350;17.056;2022-12-26T08:42:30;9.70;82.40
68433;DHT22;55412;51.350;17.056;2022-12-26T08:44:56;9.90;82.80
68433;DHT22;55412;51.350;17.056;2022-12-26T08:47:22;10.10;82.70
68433;DHT22;55412;51.350;17.056;2022-12-26T08:49:51;10.30;82.50
68433;DHT22;55412;51.350;17.056;2022-12-26T08:52:17;10.60;81.70
68433;DHT22;55412;51.350;17.056;2022-12-26T08:54:43;10.90;81.60
68433;DHT22;55412;51.350;17.056;2022-12-26T08:57:09;11.10;79.80
68433;DHT22;55412;51.350;17.056;2022-12-26T08:59:35;11.40;78.60
68433;DHT22;55412;51.350;17.056;2022-12-26T09:02:01;11.60;77.70
68433;DHT22;55412;51.350;17.056;2022-12-26T09:04:27;11.80;76.50
68433;DHT22;55412;51.350;17.056;2022-12-26T09:06:53;12.00;75.70
68433;DHT22;55412;51.350;17.056;2022-12-26T09:09:19;12.20;75.40
68433;DHT22;55412;51.350;17.056;2022-12-26T09:11:45;12.40;74.40
68433;DHT22;55412;51.350;17.056;2022-12-26T09:14:11;12.50;74.60
68433;DHT22;55412;51.350;17.056;2022-12-26T09:16:40;12.70;74.10
68433;DHT22;55412;51.350;17.056;2022-12-26T09:19:13;12.90;73.50
68433;DHT22;55412;51.350;17.056;2022-12-26T09:21:42;13.10;73.00
68433;DHT22;55412;51.350;17.056;2022-12-26T09:24:16;13.20;72.60
68433;DHT22;55412;51.350;17.056;2022-12-26T09:26:43;13.40;70.90
68433;DHT22;55412;51.350;17.056;2022-12-26T09:29:11;13.50;69.70
68433;DHT22;55412;51.350;17.056;2022-12-26T09:31:38;13.50;69.00
68433;DHT22;55412;51.350;17.056;2022-12-26T09:34:05;13.50;69.40
68433;DHT22;55412;51.350;17.056;2022-12-26T09:36:35;13.50;68.80
68433;DHT22;55412;51.350;17.056;2022-12-26T09:39:05;13.40;68.60
68433;DHT22;55412;51.350;17.056;2022-12-26T09:47:34;13.30;70.50
68433;DHT22;55412;51.350;17.056;2022-12-26T09:53:11;13.50;71.00
68433;DHT22;55412;51.350;17.056;2022-12-26T09:55:45;13.70;70.30
68433;DHT22;55412;51.350;17.056;2022-12-26T10:01:15;13.90;69.40
68433;DHT22;55412;51.350;17.056;2022-12-26T10:03:51;14.10;68.80
68433;DHT22;55412;51.350;17.056;2022-12-26T10:06:39;14.10;68.10
68433;DHT22;55412;51.350;17.056;2022-12-26T10:09:59;14.20;67.80
68433;DHT22;55412;51.350;17.056;2022-12-26T10:12:35;14.20;66.70
68433;DHT22;55412;51.350;17.056;2022-12-26T10:23:33;13.70;67.90
68433;DHT22;55412;51.350;17.056;2022-12-26T10:28:50;13.40;68.30
68433;DHT22;55412;51.350;17.056;2022-12-26T10:34:24;13.20;69.70
68433;DHT22;55412;51.350;17.056;2022-12-26T10:37:24;13.20;69.90
68433;DHT22;55412;51.350;17.056;2022-12-26T10:43:32;13.20;70.40
68433;DHT22;55412;51.350;17.056;2022-12-26T10:49:07;13.20;71.20
68433;DHT22;55412;51.350;17.056;2022-12-26T10:51:35;13.20;71.50
68433;DHT22;55412;51.350;17.056;2022-12-26T10:54:07;13.20;72.00
68433;DHT22;55412;51.350;17.056;2022-12-26T10:56:38;13.30;73.20
68433;DHT22;55412;51.350;17.056;2022-12-26T10:59:07;13.60;73.00
68433;DHT22;55412;51.350;17.056;2022-12-26T11:01:38;13.80;72.60
68433;DHT22;55412;51.350;17.056;2022-12-26T11:04:22;14.10;71.20
68433;DHT22;55412;51.350;17.056;2022-12-26T11:06:51;14.40;71.20
68433;DHT22;55412;51.350;17.056;2022-12-26T11:09:44;14.70;70.70
68433;DHT22;55412;51.350;17.056;2022-12-26T11:12:50;15.00;69.10
68433;DHT22;55412;51.350;17.056;2022-12-26T11:21:26;15.50;66.00
68433;DHT22;55412;51.350;17.056;2022-12-26T11:26:36;15.40;64.70
68433;DHT22;55412;51.350;17.056;2022-12-26T11:29:12;15.40;65.10
68433;DHT22;55412;51.350;17.056;2022-12-26T11:31:57;15.30;64.70
68433;DHT22;55412;51.350;17.056;2022-12-26T11:34:36;15.20;65.10
68433;DHT22;55412;51.350;17.056;2022-12-26T11:37:39;15.20;65.60
68433;DHT22;55412;51.350;17.056;2022-12-26T11:40:20;15.10;66.60
68433;DHT22;55412;51.350;17.056;2022-12-26T11:43:03;15.20;66.20
68433;DHT22;55412;51.350;17.056;2022-12-26T11:45:35;15.20;66.60
68433;DHT22;55412;51.350;17.056;2022-12-26T11:48:16;15.30;65.90
68433;DHT22;55412;51.350;17.056;2022-12-26T11:50:46;15.30;65.30
68433;DHT22;55412;51.350;17.056;2022-12-26T11:53:17;15.30;65.30
68433;DHT22;55412;51.350;17.056;2022-12-26T11:55:45;15.20;65.70
68433;DHT22;55412;51.350;17.056;2022-12-26T11:58:32;15.20;66.10
68433;DHT22;55412;51.350;17.056;2022-12-26T12:12:13;15.50;66.60
68433;DHT22;55412;51.350;17.056;2022-12-26T12:15:12;15.60;67.00
68433;DHT22;55412;51.350;17.056;2022-12-26T12:18:03;15.80;66.90
68433;DHT22;55412;51.350;17.056;2022-12-26T12:20:35;16.00;66.00
68433;DHT22;55412;51.350;17.056;2022-12-26T12:30:00;16.20;64.10
68433;DHT22;55412;51.350;17.056;2022-12-26T12:33:25;16.20;64.50
68433;DHT22;55412;51.350;17.056;2022-12-26T12:38:49;16.20;64.50
68433;DHT22;55412;51.350;17.056;2022-12-26T12:47:16;15.90;63.10
68433;DHT22;55412;51.350;17.056;2022-12-26T12:50:23;15.70;63.20
68433;DHT22;55412;51.350;17.056;2022-12-26T12:53:14;15.60;63.50
68433;DHT22;55412;51.350;17.056;2022-12-26T12:56:02;15.50;63.80
68433;DHT22;55412;51.350;17.056;2022-12-26T12:58:38;15.40;63.90
68433;DHT22;55412;51.350;17.056;2022-12-26T13:01:20;15.30;63.90
68433;DHT22;55412;51.350;17.056;2022-12-26T13:09:58;15.10;64.50
68433;DHT22;55412;51.350;17.056;2022-12-26T13:12:34;15.00;64.70
68433;DHT22;55412;51.350;17.056;2022-12-26T13:15:07;15.00;64.70
68433;DHT22;55412;51.350;17.056;2022-12-26T13:18:19;14.90;65.20
68433;DHT22;55412;51.350;17.056;2022-12-26T13:20:53;14.90;65.10
68433;DHT22;55412;51.350;17.056;2022-12-26T13:23:53;14.80;65.30
68433;DHT22;55412;51.350;17.056;2022-12-26T13:26:44;14.80;65.40
68433;DHT22;55412;51.350;17.056;2022-12-26T13:29:34;14.80;65.60
68433;DHT22;55412;51.350;17.056;2022-12-26T13:32:12;14.70;65.40
68433;DHT22;55412;51.350;17.056;2022-12-26T13:34:44;14.70;65.60
68433;DHT22;55412;51.350;17.056;2022-12-26T13:37:53;14.60;65.80
68433;DHT22;55412;51.350;17.056;2022-12-26T13:40:28;14.60;65.90
68433;DHT22;55412;51.350;17.056;2022-12-26T13:45:52;14.50;65.90
68433;DHT22;55412;51.350;17.056;2022-12-26T13:50:50;14.40;66.10
68433;DHT22;55412;51.350;17.056;2022-12-26T13:53:33;14.40;66.30
68433;DHT22;55412;51.350;17.056;2022-12-26T13:56:13;14.40;66.10
68433;DHT22;55412;51.350;17.056;2022-12-26T13:59:03;14.30;66.20
68433;DHT22;55412;51.350;17.056;2022-12-26T14:01:57;14.30;66.30
68433;DHT22;55412;51.350;17.056;2022-12-26T14:05:07;14.30;66.40
68433;DHT22;55412;51.350;17.056;2022-12-26T14:07:58;14.30;66.40
68433;DHT22;55412;51.350;17.056;2022-12-26T14:16:52;14.10;66.40
68433;DHT22;55412;51.350;17.056;2022-12-26T14:20:29;14.10;66.60
68433;DHT22;55412;51.350;17.056;2022-12-26T14:27:56;13.80;68.40
68433;DHT22;55412;51.350;17.056;2022-12-26T14:30:54;13.70;68.40
68433;DHT22;55412;51.350;17.056;2022-12-26T14:36:50;13.60;68.00
68433;DHT22;55412;51.350;17.056;2022-12-26T14:39:43;13.60;68.10
68433;DHT22;55412;51.350;17.056;2022-12-26T14:58:41;13.40;68.60
68433;DHT22;55412;51.350;17.056;2022-12-26T15:13:03;13.40;69.00
68433;DHT22;55412;51.350;17.056;2022-12-26T15:25:16;13.00;70.90
68433;DHT22;55412;51.350;17.056;2022-12-26T15:28:30;13.00;71.00
68433;DHT22;55412;51.350;17.056;2022-12-26T15:40:30;12.70;71.70
68433;DHT22;55412;51.350;17.056;2022-12-26T15:43:22;12.70;71.90
68433;DHT22;55412;51.350;17.056;2022-12-26T15:46:25;12.60;72.30
68433;DHT22;55412;51.350;17.056;2022-12-26T16:00:29;12.50;73.60
68433;DHT22;55412;51.350;17.056;2022-12-26T16:05:50;12.40;73.60
68433;DHT22;55412;51.350;17.056;2022-12-26T16:08:34;12.40;73.70
68433;DHT22;55412;51.350;17.056;2022-12-26T16:11:26;12.40;74.70
68433;DHT22;55412;51.350;17.056;2022-12-26T16:14:00;12.30;75.50
68433;DHT22;55412;51.350;17.056;2022-12-26T16:16:32;12.20;76.70
68433;DHT22;55412;51.350;17.056;2022-12-26T16:19:25;11.90;76.00
68433;DHT22;55412;51.350;17.056;2022-12-26T16:22:01;11.70;76.10
68433;DHT22;55412;51.350;17.056;2022-12-26T16:24:48;11.50;76.70
68433;DHT22;55412;51.350;17.056;2022-12-26T16:27:20;11.40;76.70
68433;DHT22;55412;51.350;17.056;2022-12-26T16:30:04;11.40;76.10
68433;DHT22;55412;51.350;17.056;2022-12-26T16:32:36;11.40;76.30
68433;DHT22;55412;51.350;17.056;2022-12-26T16:35:06;11.40;75.90
68433;DHT22;55412;51.350;17.056;2022-12-26T16:37:38;11.40;75.70
68433;DHT22;55412;51.350;17.056;2022-12-26T16:40:30;11.40;76.00
68433;DHT22;55412;51.350;17.056;2022-12-26T16:43:20;11.30;76.00
68433;DHT22;55412;51.350;17.056;2022-12-26T16:45:57;11.30;76.50
68433;DHT22;55412;51.350;17.056;2022-12-26T16:48:29;11.30;76.50
68433;DHT22;55412;51.350;17.056;2022-12-26T16:51:08;11.30;76.40
68433;DHT22;55412;51.350;17.056;2022-12-26T16:53:52;11.30;76.50
68433;DHT22;55412;51.350;17.056;2022-12-26T16:56:30;11.20;76.40
68433;DHT22;55412;51.350;17.056;2022-12-26T16:59:16;11.20;76.30
68433;DHT22;55412;51.350;17.056;2022-12-26T17:01:55;11.20;76.40
68433;DHT22;55412;51.350;17.056;2022-12-26T17:04:25;11.10;76.30
68433;DHT22;55412;51.350;17.056;2022-12-26T17:07:06;11.10;76.30
68433;DHT22;55412;51.350;17.056;2022-12-26T17:09:43;11.10;76.30
68433;DHT22;55412;51.350;17.056;2022-12-26T17:12:29;11.00;76.20
68433;DHT22;55412;51.350;17.056;2022-12-26T17:15:00;11.00;76.20
68433;DHT22;55412;51.350;17.056;2022-12-26T17:17:33;11.00;76.30
68433;DHT22;55412;51.350;17.056;2022-12-26T17:22:57;10.90;76.40
68433;DHT22;55412;51.350;17.056;2022-12-26T17:25:29;10.90;76.60
68433;DHT22;55412;51.350;17.056;2022-12-26T17:30:44;10.90;77.00
68433;DHT22;55412;51.350;17.056;2022-12-26T17:33:17;10.80;77.30
68433;DHT22;55412;51.350;17.056;2022-12-26T17:35:51;10.80;77.20
68433;DHT22;55412;51.350;17.056;2022-12-26T17:38:25;10.80;77.30
68433;DHT22;55412;51.350;17.056;2022-12-26T17:40:57;10.80;77.50
68433;DHT22;55412;51.350;17.056;2022-12-26T17:43:36;10.80;77.60
68433;DHT22;55412;51.350;17.056;2022-12-26T17:46:06;10.80;77.50
68433;DHT22;55412;51.350;17.056;2022-12-26T17:48:34;10.70;77.80
68433;DHT22;55412;51.350;17.056;2022-12-26T17:51:03;10.70;78.10
68433;DHT22;55412;51.350;17.056;2022-12-26T17:53:38;10.70;78.20
68433;DHT22;55412;51.350;17.056;2022-12-26T17:56:11;10.70;78.40
68433;DHT22;55412;51.350;17.056;2022-12-26T17:58:40;10.70;78.40
68433;DHT22;55412;51.350;17.056;2022-12-26T18:01:07;10.60;78.60
68433;DHT22;55412;51.350;17.056;2022-12-26T18:03:33;10.60;78.50
68433;DHT22;55412;51.350;17.056;2022-12-26T18:06:00;10.60;78.80
68433;DHT22;55412;51.350;17.056;2022-12-26T18:11:03;10.60;78.90
68433;DHT22;55412;51.350;17.056;2022-12-26T18:13:31;10.60;79.20
68433;DHT22;55412;51.350;17.056;2022-12-26T18:15:57;10.60;79.20
68433;DHT22;55412;51.350;17.056;2022-12-26T18:21:08;10.60;79.30
68433;DHT22;55412;51.350;17.056;2022-12-26T18:23:35;10.60;79.40
68433;DHT22;55412;51.350;17.056;2022-12-26T18:26:07;10.60;79.40
68433;DHT22;55412;51.350;17.056;2022-12-26T18:28:56;10.60;79.30
68433;DHT22;55412;51.350;17.056;2022-12-26T18:31:23;10.60;79.30
68433;DHT22;55412;51.350;17.056;2022-12-26T18:33:53;10.60;79.40
68433;DHT22;55412;51.350;17.056;2022-12-26T18:36:25;10.50;79.40
68433;DHT22;55412;51.350;17.056;2022-12-26T18:38:54;10.50;79.30
68433;DHT22;55412;51.350;17.056;2022-12-26T18:41:20;10.50;79.40
68433;DHT22;55412;51.350;17.056;2022-12-26T18:43:46;10.50;79.40
68433;DHT22;55412;51.350;17.056;2022-12-26T18:46:21;10.50;79.30
68433;DHT22;55412;51.350;17.056;2022-12-26T18:48:48;10.50;79.20
68433;DHT22;55412;51.350;17.056;2022-12-26T18:51:18;10.50;79.20
68433;DHT22;55412;51.350;17.056;2022-12-26T18:53:45;10.40;79.10
68433;DHT22;55412;51.350;17.056;2022-12-26T18:56:17;10.50;79.00
68433;DHT22;55412;51.350;17.056;2022-12-26T18:58:46;10.40;78.90
68433;DHT22;55412;51.350;17.056;2022-12-26T19:01:14;10.40;79.00
68433;DHT22;55412;51.350;17.056;2022-12-26T19:03:42;10.40;78.80
68433;DHT22;55412;51.350;17.056;2022-12-26T19:06:18;10.40;78.60
68433;DHT22;55412;51.350;17.056;2022-12-26T19:08:47;10.40;78.50
68433;DHT22;55412;51.350;17.056;2022-12-26T19:11:13;10.30;78.50
68433;DHT22;55412;51.350;17.056;2022-12-26T19:13:40;10.30;78.50
68433;DHT22;55412;51.350;17.056;2022-12-26T19:16:07;10.30;78.50
68433;DHT22;55412;51.350;17.056;2022-12-26T19:18:33;10.30;78.50
68433;DHT22;55412;51.350;17.056;2022-12-26T19:20:59;10.20;78.70
68433;DHT22;55412;51.350;17.056;2022-12-26T19:23:25;10.20;78.70
68433;DHT22;55412;51.350;17.056;2022-12-26T19:25:51;10.20;78.60
68433;DHT22;55412;51.350;17.056;2022-12-26T19:28:17;10.20;78.60
68433;DHT22;55412;51.350;17.056;2022-12-26T19:30:43;10.10;78.80
68433;DHT22;55412;51.350;17.056;2022-12-26T19:33:09;10.10;78.70
68433;DHT22;55412;51.350;17.056;2022-12-26T19:35:35;10.10;78.80
68433;DHT22;55412;51.350;17.056;2022-12-26T19:38:01;10.00;78.80
68433;DHT22;55412;51.350;17.056;2022-12-26T19:40:27;10.00;78.80